River Of Ponds, Canada
Current Conditions -  °F | °C
As of 7:00 AM on Sunday 26 Oct 2014 (Local Time) from CWDH Reporting Station
Scattered Clouds Scattered Clouds  
Wind Chill:   Ceiling: Unl
Heat Index:   Visibility: 9mi
Dew Point:   Wind: 12mph
Humidity: 71%   Direction: 50°NE
Pressure: 29.6"   Gusts: NA
Location:  50.53°N, 57.38°W
Report Text: CWDH 260900Z AUTO 05010KT 9SM SCT024 04/M00 A2960 RMK SLP023 T00441004 70033 WSI/SWOB
Loading
Personal Weather Stations






























Interactive Weather Map
Tropical Storm Tracking
New forecast layout! Learn more

10-Day Weather Forecast

Advertisements
Track Severe Weather on mobile